createdAt,value
2022-07-30T07:02:01.006Z,48.2
2022-07-30T07:08:16.113Z,43.7
2022-07-30T07:14:04.122Z,50.3
2022-07-30T07:20:34.783Z,47.4
2022-07-30T07:26:34.179Z,47.4
2022-07-30T07:33:50.926Z,48.6
2022-07-30T07:39:31.514Z,49.4
2022-07-30T07:45:30.034Z,50.5
2022-07-30T07:51:01.002Z,51.3
2022-07-30T07:57:22.514Z,51.6
2022-07-30T08:02:53.506Z,51.5
2022-07-30T08:08:50.299Z,51.3
2022-07-30T08:15:17.062Z,51.7
2022-07-30T08:21:06.463Z,52.7
2022-07-30T08:26:48.592Z,53.6
2022-07-30T08:33:02.152Z,54.4
2022-07-30T08:38:59.331Z,55.4
2022-07-30T08:44:38.979Z,56.3
2022-07-30T08:50:35.272Z,56.9
2022-07-30T08:56:15.333Z,57.7
2022-07-30T09:02:27.110Z,58.3
2022-07-30T09:07:51.163Z,58.8
2022-07-30T09:13:30.083Z,59.4
2022-07-30T09:19:04.160Z,59.9
2022-07-30T09:24:41.262Z,60.4
2022-07-30T09:30:19.268Z,60.7
2022-07-30T09:35:59.895Z,61.3
2022-07-30T09:42:12.271Z,61.8
2022-07-30T09:47:59.114Z,62.1
2022-07-30T10:03:41.848Z,62.7
2022-07-30T10:09:31.827Z,63.1
2022-07-30T10:15:43.850Z,63.3
2022-07-30T10:21:26.471Z,63.3
2022-07-30T10:29:12.855Z,63.7
2022-07-30T10:36:43.235Z,64.1
2022-07-30T10:42:50.520Z,64.1
2022-07-30T10:48:51.140Z,64.3
2022-07-30T10:54:48.852Z,64.5
2022-07-30T11:01:18.208Z,64.7
2022-07-30T11:07:50.517Z,65.1
2022-07-30T11:14:37.124Z,65.3
2022-07-30T11:21:10.021Z,65.3
2022-07-30T11:27:45.604Z,65.5
2022-07-30T11:34:25.854Z,65.4
2022-07-30T11:40:46.639Z,65.7
